sensor_id;sensor_type;location;lat;lon;timestamp;temperature;humidity
61253;DHT22;47127;47.516;8.596;2024-03-23T00:54:18;11.80;99.90
61253;DHT22;47127;47.516;8.596;2024-03-23T00:56:44;11.80;99.90
61253;DHT22;47127;47.516;8.596;2024-03-23T00:59:10;11.90;99.90
61253;DHT22;47127;47.516;8.596;2024-03-23T01:01:35;11.90;99.90
61253;DHT22;47127;47.516;8.596;2024-03-23T01:04:01;11.90;99.90
61253;DHT22;47127;47.516;8.596;2024-03-23T01:06:28;11.90;99.90
61253;DHT22;47127;47.516;8.596;2024-03-23T01:08:53;11.90;99.90
61253;DHT22;47127;47.516;8.596;2024-03-23T01:11:19;12.00;99.90
61253;DHT22;47127;47.516;8.596;2024-03-23T01:13:44;12.00;99.90
61253;DHT22;47127;47.516;8.596;2024-03-23T01:16:10;12.10;99.90
61253;DHT22;47127;47.516;8.596;2024-03-23T01:18:35;12.00;99.90
61253;DHT22;47127;47.516;8.596;2024-03-23T01:21:01;12.00;99.90
61253;DHT22;47127;47.516;8.596;2024-03-23T01:23:26;11.90;99.90
61253;DHT22;47127;47.516;8.596;2024-03-23T01:25:56;11.90;99.90
61253;DHT22;47127;47.516;8.596;2024-03-23T01:28:22;11.80;99.90
61253;DHT22;47127;47.516;8.596;2024-03-23T01:30:48;11.90;99.90
61253;DHT22;47127;47.516;8.596;2024-03-23T01:33:14;11.90;99.90
61253;DHT22;47127;47.516;8.596;2024-03-23T01:35:39;12.00;99.90
61253;DHT22;47127;47.516;8.596;2024-03-23T01:38:05;12.10;99.90
61253;DHT22;47127;47.516;8.596;2024-03-23T01:40:31;12.10;99.90
61253;DHT22;47127;47.516;8.596;2024-03-23T01:45:30;12.30;99.90
61253;DHT22;47127;47.516;8.596;2024-03-23T01:47:56;12.50;99.90
61253;DHT22;47127;47.516;8.596;2024-03-23T01:50:22;12.40;99.90
61253;DHT22;47127;47.516;8.596;2024-03-23T01:52:49;12.50;99.90
61253;DHT22;47127;47.516;8.596;2024-03-23T01:55:15;12.60;99.90
61253;DHT22;47127;47.516;8.596;2024-03-23T01:57:40;12.70;99.90
61253;DHT22;47127;47.516;8.596;2024-03-23T02:00:07;12.70;99.90
61253;DHT22;47127;47.516;8.596;2024-03-23T02:02:33;12.80;99.90
61253;DHT22;47127;47.516;8.596;2024-03-23T02:04:58;12.80;99.90
61253;DHT22;47127;47.516;8.596;2024-03-23T02:07:24;12.80;99.90
61253;DHT22;47127;47.516;8.596;2024-03-23T02:09:51;12.80;99.90
61253;DHT22;47127;47.516;8.596;2024-03-23T02:12:18;12.80;99.90
61253;DHT22;47127;47.516;8.596;2024-03-23T02:14:44;12.80;99.90
61253;DHT22;47127;47.516;8.596;2024-03-23T02:17:09;12.90;99.90
61253;DHT22;47127;47.516;8.596;2024-03-23T02:19:35;12.90;99.90
61253;DHT22;47127;47.516;8.596;2024-03-23T02:22:00;12.90;99.90
61253;DHT22;47127;47.516;8.596;2024-03-23T02:24:26;12.80;99.90
61253;DHT22;47127;47.516;8.596;2024-03-23T02:26:52;12.90;99.90
61253;DHT22;47127;47.516;8.596;2024-03-23T02:29:17;12.90;99.90
61253;DHT22;47127;47.516;8.596;2024-03-23T02:31:44;13.00;99.90
61253;DHT22;47127;47.516;8.596;2024-03-23T02:34:10;13.00;99.90
61253;DHT22;47127;47.516;8.596;2024-03-23T02:36:36;13.00;99.90
61253;DHT22;47127;47.516;8.596;2024-03-23T02:39:01;12.90;99.90
61253;DHT22;47127;47.516;8.596;2024-03-23T02:41:27;12.90;99.90
61253;DHT22;47127;47.516;8.596;2024-03-23T02:43:53;12.90;99.90
61253;DHT22;47127;47.516;8.596;2024-03-23T02:46:18;12.80;99.90
61253;DHT22;47127;47.516;8.596;2024-03-23T02:48:44;12.90;99.90
61253;DHT22;47127;47.516;8.596;2024-03-23T02:51:09;13.00;99.90
61253;DHT22;47127;47.516;8.596;2024-03-23T02:53:35;13.10;99.90
61253;DHT22;47127;47.516;8.596;2024-03-23T02:56:01;13.20;99.90
61253;DHT22;47127;47.516;8.596;2024-03-23T02:58:26;13.20;99.90
61253;DHT22;47127;47.516;8.596;2024-03-23T03:00:52;13.20;99.90
61253;DHT22;47127;47.516;8.596;2024-03-23T03:03:17;13.20;99.90
61253;DHT22;47127;47.516;8.596;2024-03-23T03:05:43;13.20;99.90
61253;DHT22;47127;47.516;8.596;2024-03-23T03:08:08;13.20;99.90
61253;DHT22;47127;47.516;8.596;2024-03-23T03:10:34;13.20;99.90
61253;DHT22;47127;47.516;8.596;2024-03-23T03:13:03;13.10;99.90
61253;DHT22;47127;47.516;8.596;2024-03-23T03:15:29;13.10;99.90
61253;DHT22;47127;47.516;8.596;2024-03-23T03:17:54;13.10;99.90
61253;DHT22;47127;47.516;8.596;2024-03-23T03:20:20;13.10;99.90
61253;DHT22;47127;47.516;8.596;2024-03-23T03:22:48;13.10;99.90
61253;DHT22;47127;47.516;8.596;2024-03-23T03:25:14;13.10;99.90
61253;DHT22;47127;47.516;8.596;2024-03-23T03:27:39;13.10;99.90
61253;DHT22;47127;47.516;8.596;2024-03-23T03:30:05;13.10;99.90
61253;DHT22;47127;47.516;8.596;2024-03-23T03:32:33;13.00;99.90
61253;DHT22;47127;47.516;8.596;2024-03-23T03:34:59;13.00;99.90
61253;DHT22;47127;47.516;8.596;2024-03-23T03:37:25;12.90;99.90
61253;DHT22;47127;47.516;8.596;2024-03-23T03:39:50;13.00;99.90
61253;DHT22;47127;47.516;8.596;2024-03-23T03:42:16;13.00;99.90
61253;DHT22;47127;47.516;8.596;2024-03-23T03:44:42;13.00;99.90
61253;DHT22;47127;47.516;8.596;2024-03-23T03:47:07;13.00;99.90
61253;DHT22;47127;47.516;8.596;2024-03-23T03:49:33;13.10;99.90
61253;DHT22;47127;47.516;8.596;2024-03-23T03:51:58;13.20;99.90
61253;DHT22;47127;47.516;8.596;2024-03-23T03:54:26;13.30;99.90
61253;DHT22;47127;47.516;8.596;2024-03-23T03:56:52;13.30;99.90
61253;DHT22;47127;47.516;8.596;2024-03-23T03:59:17;13.10;99.90
61253;DHT22;47127;47.516;8.596;2024-03-23T04:01:43;13.20;99.90
61253;DHT22;47127;47.516;8.596;2024-03-23T04:04:08;13.20;99.90
61253;DHT22;47127;47.516;8.596;2024-03-23T04:06:34;13.20;99.90
61253;DHT22;47127;47.516;8.596;2024-03-23T04:08:59;13.20;99.90
61253;DHT22;47127;47.516;8.596;2024-03-23T04:11:25;13.20;99.90
61253;DHT22;47127;47.516;8.596;2024-03-23T04:13:51;13.20;99.90
61253;DHT22;47127;47.516;8.596;2024-03-23T04:16:30;13.30;99.90
61253;DHT22;47127;47.516;8.596;2024-03-23T04:18:55;13.30;99.90
61253;DHT22;47127;47.516;8.596;2024-03-23T04:21:21;13.40;99.90
61253;DHT22;47127;47.516;8.596;2024-03-23T04:23:48;13.40;99.90
61253;DHT22;47127;47.516;8.596;2024-03-23T04:26:15;13.30;99.90
61253;DHT22;47127;47.516;8.596;2024-03-23T04:28:40;13.30;99.90
61253;DHT22;47127;47.516;8.596;2024-03-23T04:31:06;13.30;99.90
61253;DHT22;47127;47.516;8.596;2024-03-23T04:33:32;13.30;99.90
61253;DHT22;47127;47.516;8.596;2024-03-23T04:35:57;13.40;99.90
61253;DHT22;47127;47.516;8.596;2024-03-23T04:38:23;13.30;99.90
61253;DHT22;47127;47.516;8.596;2024-03-23T04:40:56;13.20;99.90
61253;DHT22;47127;47.516;8.596;2024-03-23T04:43:21;13.20;99.90
61253;DHT22;47127;47.516;8.596;2024-03-23T04:45:47;13.10;99.90
61253;DHT22;47127;47.516;8.596;2024-03-23T04:48:12;12.90;99.90
61253;DHT22;47127;47.516;8.596;2024-03-23T04:50:38;12.70;99.90
61253;DHT22;47127;47.516;8.596;2024-03-23T04:53:04;12.60;99.90
61253;DHT22;47127;47.516;8.596;2024-03-23T04:55:29;12.60;99.90
61253;DHT22;47127;47.516;8.596;2024-03-23T04:57:56;12.70;99.90
61253;DHT22;47127;47.516;8.596;2024-03-23T05:00:21;12.90;99.90
61253;DHT22;47127;47.516;8.596;2024-03-23T05:02:48;13.00;99.90
61253;DHT22;47127;47.516;8.596;2024-03-23T05:05:14;12.90;99.90
61253;DHT22;47127;47.516;8.596;2024-03-23T05:07:40;12.80;99.90
61253;DHT22;47127;47.516;8.596;2024-03-23T05:10:08;12.70;99.90
61253;DHT22;47127;47.516;8.596;2024-03-23T05:12:36;12.80;99.90
61253;DHT22;47127;47.516;8.596;2024-03-23T05:15:02;12.80;99.90
61253;DHT22;47127;47.516;8.596;2024-03-23T05:17:28;12.80;99.90
61253;DHT22;47127;47.516;8.596;2024-03-23T05:19:54;12.80;99.90
61253;DHT22;47127;47.516;8.596;2024-03-23T05:22:19;12.90;99.90
61253;DHT22;47127;47.516;8.596;2024-03-23T05:24:46;13.10;99.90
61253;DHT22;47127;47.516;8.596;2024-03-23T05:27:12;13.20;99.90
61253;DHT22;47127;47.516;8.596;2024-03-23T05:29:37;13.20;99.90
61253;DHT22;47127;47.516;8.596;2024-03-23T05:32:03;13.20;99.90
61253;DHT22;47127;47.516;8.596;2024-03-23T05:34:29;13.00;99.90
61253;DHT22;47127;47.516;8.596;2024-03-23T05:36:54;12.80;99.90
61253;DHT22;47127;47.516;8.596;2024-03-23T05:39:20;12.70;99.90
61253;DHT22;47127;47.516;8.596;2024-03-23T05:41:48;12.60;99.90
61253;DHT22;47127;47.516;8.596;2024-03-23T05:44:13;12.60;99.90
61253;DHT22;47127;47.516;8.596;2024-03-23T05:46:40;12.60;99.90
61253;DHT22;47127;47.516;8.596;2024-03-23T05:49:06;12.40;99.90
61253;DHT22;47127;47.516;8.596;2024-03-23T05:51:32;12.30;99.90
61253;DHT22;47127;47.516;8.596;2024-03-23T05:53:57;12.20;99.90
61253;DHT22;47127;47.516;8.596;2024-03-23T05:56:23;12.10;99.90
61253;DHT22;47127;47.516;8.596;2024-03-23T05:58:48;12.20;99.90
61253;DHT22;47127;47.516;8.596;2024-03-23T06:01:14;12.10;99.90
61253;DHT22;47127;47.516;8.596;2024-03-23T06:03:40;12.10;99.90
61253;DHT22;47127;47.516;8.596;2024-03-23T06:06:05;11.90;99.90
61253;DHT22;47127;47.516;8.596;2024-03-23T06:08:35;11.90;99.90
61253;DHT22;47127;47.516;8.596;2024-03-23T06:11:01;11.80;99.90
61253;DHT22;47127;47.516;8.596;2024-03-23T06:13:27;11.70;99.90
61253;DHT22;47127;47.516;8.596;2024-03-23T06:15:55;9.90;99.90
61253;DHT22;47127;47.516;8.596;2024-03-23T06:18:21;11.60;99.90
61253;DHT22;47127;47.516;8.596;2024-03-23T06:20:46;11.60;99.90
61253;DHT22;47127;47.516;8.596;2024-03-23T06:23:12;11.40;99.90
61253;DHT22;47127;47.516;8.596;2024-03-23T06:25:38;11.40;99.90
61253;DHT22;47127;47.516;8.596;2024-03-23T06:28:04;11.40;99.90
61253;DHT22;47127;47.516;8.596;2024-03-23T06:30:30;11.50;99.90
61253;DHT22;47127;47.516;8.596;2024-03-23T06:32:57;11.40;99.90
61253;DHT22;47127;47.516;8.596;2024-03-23T06:35:22;11.50;99.90
61253;DHT22;47127;47.516;8.596;2024-03-23T06:37:48;11.40;99.90
61253;DHT22;47127;47.516;8.596;2024-03-23T06:40:15;11.40;99.90
61253;DHT22;47127;47.516;8.596;2024-03-23T06:42:41;11.50;99.90
61253;DHT22;47127;47.516;8.596;2024-03-23T06:45:06;11.40;99.90
61253;DHT22;47127;47.516;8.596;2024-03-23T06:47:32;11.60;99.90
61253;DHT22;47127;47.516;8.596;2024-03-23T06:50:02;11.60;99.90
61253;DHT22;47127;47.516;8.596;2024-03-23T06:52:29;11.50;99.90
61253;DHT22;47127;47.516;8.596;2024-03-23T06:54:54;11.60;99.90
61253;DHT22;47127;47.516;8.596;2024-03-23T06:57:20;11.60;99.90
61253;DHT22;47127;47.516;8.596;2024-03-23T06:59:45;11.60;99.90
61253;DHT22;47127;47.516;8.596;2024-03-23T07:02:11;11.50;99.90
61253;DHT22;47127;47.516;8.596;2024-03-23T07:04:37;11.60;99.90
61253;DHT22;47127;47.516;8.596;2024-03-23T07:07:04;11.60;99.90
61253;DHT22;47127;47.516;8.596;2024-03-23T07:09:30;11.40;99.90
61253;DHT22;47127;47.516;8.596;2024-03-23T07:11:57;11.40;99.90
61253;DHT22;47127;47.516;8.596;2024-03-23T07:14:23;11.40;99.90
61253;DHT22;47127;47.516;8.596;2024-03-23T07:16:49;11.40;99.90
61253;DHT22;47127;47.516;8.596;2024-03-23T07:19:16;11.40;99.90
61253;DHT22;47127;47.516;8.596;2024-03-23T07:21:42;11.30;99.90
61253;DHT22;47127;47.516;8.596;2024-03-23T07:24:08;11.40;99.90
61253;DHT22;47127;47.516;8.596;2024-03-23T07:26:34;11.40;99.90
61253;DHT22;47127;47.516;8.596;2024-03-23T07:28:59;11.30;99.90
61253;DHT22;47127;47.516;8.596;2024-03-23T07:31:25;11.20;99.90
61253;DHT22;47127;47.516;8.596;2024-03-23T07:33:51;11.30;99.90
61253;DHT22;47127;47.516;8.596;2024-03-23T07:36:16;11.20;99.90
61253;DHT22;47127;47.516;8.596;2024-03-23T07:38:43;11.10;99.90
61253;DHT22;47127;47.516;8.596;2024-03-23T07:41:11;11.00;99.90
61253;DHT22;47127;47.516;8.596;2024-03-23T07:43:38;11.00;99.90
61253;DHT22;47127;47.516;8.596;2024-03-23T07:46:04;11.00;99.90
61253;DHT22;47127;47.516;8.596;2024-03-23T07:48:30;11.10;99.90
61253;DHT22;47127;47.516;8.596;2024-03-23T07:53:30;11.00;99.90
61253;DHT22;47127;47.516;8.596;2024-03-23T07:56:08;10.90;99.90
61253;DHT22;47127;47.516;8.596;2024-03-23T07:58:35;10.90;99.90
61253;DHT22;47127;47.516;8.596;2024-03-23T08:01:10;10.70;99.90
61253;DHT22;47127;47.516;8.596;2024-03-23T08:03:40;10.60;99.90
61253;DHT22;47127;47.516;8.596;2024-03-23T08:06:13;10.60;99.90
61253;DHT22;47127;47.516;8.596;2024-03-23T08:08:40;10.50;99.90
61253;DHT22;47127;47.516;8.596;2024-03-23T08:11:06;10.70;99.90
61253;DHT22;47127;47.516;8.596;2024-03-23T08:13:33;10.60;99.90
61253;DHT22;47127;47.516;8.596;2024-03-23T08:15:59;10.60;99.90
61253;DHT22;47127;47.516;8.596;2024-03-23T08:18:25;10.50;99.90
61253;DHT22;47127;47.516;8.596;2024-03-23T08:21:01;10.10;99.90
61253;DHT22;47127;47.516;8.596;2024-03-23T08:23:28;9.80;99.90
61253;DHT22;47127;47.516;8.596;2024-03-23T08:26:00;9.80;99.90
61253;DHT22;47127;47.516;8.596;2024-03-23T08:28:26;9.70;99.90
61253;DHT22;47127;47.516;8.596;2024-03-23T08:30:53;9.70;99.90
61253;DHT22;47127;47.516;8.596;2024-03-23T08:33:19;9.70;99.90
61253;DHT22;47127;47.516;8.596;2024-03-23T08:35:55;9.70;99.90
61253;DHT22;47127;47.516;8.596;2024-03-23T08:38:21;9.50;99.90
61253;DHT22;47127;47.516;8.596;2024-03-23T08:40:47;9.50;99.90
61253;DHT22;47127;47.516;8.596;2024-03-23T08:43:13;9.50;99.90
61253;DHT22;47127;47.516;8.596;2024-03-23T08:45:39;9.40;99.90
61253;DHT22;47127;47.516;8.596;2024-03-23T08:48:05;9.50;99.90
61253;DHT22;47127;47.516;8.596;2024-03-23T08:50:31;9.60;99.90
61253;DHT22;47127;47.516;8.596;2024-03-23T08:52:56;9.60;99.90
61253;DHT22;47127;47.516;8.596;2024-03-23T08:55:22;9.50;99.90
61253;DHT22;47127;47.516;8.596;2024-03-23T08:57:49;9.60;99.90
61253;DHT22;47127;47.516;8.596;2024-03-23T09:00:14;9.40;99.90
61253;DHT22;47127;47.516;8.596;2024-03-23T09:02:40;9.40;99.90
61253;DHT22;47127;47.516;8.596;2024-03-23T09:05:06;9.50;99.90
61253;DHT22;47127;47.516;8.596;2024-03-23T09:07:32;9.60;99.90
61253;DHT22;47127;47.516;8.596;2024-03-23T09:09:57;9.60;99.90
61253;DHT22;47127;47.516;8.596;2024-03-23T09:12:23;9.70;99.90
61253;DHT22;47127;47.516;8.596;2024-03-23T09:14:50;9.60;99.90
61253;DHT22;47127;47.516;8.596;2024-03-23T09:17:16;9.70;99.90
61253;DHT22;47127;47.516;8.596;2024-03-23T09:19:41;9.70;99.90
61253;DHT22;47127;47.516;8.596;2024-03-23T09:22:07;9.70;99.90
61253;DHT22;47127;47.516;8.596;2024-03-23T09:24:34;9.70;99.90
61253;DHT22;47127;47.516;8.596;2024-03-23T09:27:00;9.70;99.90
61253;DHT22;47127;47.516;8.596;2024-03-23T09:29:25;9.50;99.90
61253;DHT22;47127;47.516;8.596;2024-03-23T09:31:51;9.40;99.90
61253;DHT22;47127;47.516;8.596;2024-03-23T09:34:16;9.40;99.90
61253;DHT22;47127;47.516;8.596;2024-03-23T09:36:43;9.30;99.90
61253;DHT22;47127;47.516;8.596;2024-03-23T09:39:09;9.30;99.90
61253;DHT22;47127;47.516;8.596;2024-03-23T09:41:35;9.30;99.90
61253;DHT22;47127;47.516;8.596;2024-03-23T09:44:01;9.20;99.90
61253;DHT22;47127;47.516;8.596;2024-03-23T09:46:27;9.30;99.90
61253;DHT22;47127;47.516;8.596;2024-03-23T09:48:56;9.50;99.90
61253;DHT22;47127;47.516;8.596;2024-03-23T09:51:22;9.20;99.90
61253;DHT22;47127;47.516;8.596;2024-03-23T09:53:51;9.30;99.90
61253;DHT22;47127;47.516;8.596;2024-03-23T09:56:17;9.40;99.90
61253;DHT22;47127;47.516;8.596;2024-03-23T09:58:43;9.70;99.90
61253;DHT22;47127;47.516;8.596;2024-03-23T10:01:09;9.80;99.90
61253;DHT22;47127;47.516;8.596;2024-03-23T10:03:46;9.70;99.90
61253;DHT22;47127;47.516;8.596;2024-03-23T10:06:13;9.40;99.90
61253;DHT22;47127;47.516;8.596;2024-03-23T10:08:39;9.60;99.90
61253;DHT22;47127;47.516;8.596;2024-03-23T10:11:15;9.70;99.90
61253;DHT22;47127;47.516;8.596;2024-03-23T10:13:44;9.80;99.90
61253;DHT22;47127;47.516;8.596;2024-03-23T10:16:11;9.70;99.90
61253;DHT22;47127;47.516;8.596;2024-03-23T10:18:38;9.90;99.90
61253;DHT22;47127;47.516;8.596;2024-03-23T10:21:10;9.90;99.90
61253;DHT22;47127;47.516;8.596;2024-03-23T10:23:38;9.90;99.90
61253;DHT22;47127;47.516;8.596;2024-03-23T10:26:24;9.90;99.40
61253;DHT22;47127;47.516;8.596;2024-03-23T10:28:58;9.80;98.80
61253;DHT22;47127;47.516;8.596;2024-03-23T10:31:30;9.90;99.10
61253;DHT22;47127;47.516;8.596;2024-03-23T10:33:56;9.90;98.30
61253;DHT22;47127;47.516;8.596;2024-03-23T10:36:23;9.90;98.00
61253;DHT22;47127;47.516;8.596;2024-03-23T10:38:50;9.90;98.30
61253;DHT22;47127;47.516;8.596;2024-03-23T10:41:16;10.00;97.30
61253;DHT22;47127;47.516;8.596;2024-03-23T10:43:43;10.10;97.60
61253;DHT22;47127;47.516;8.596;2024-03-23T10:46:10;10.20;96.00
61253;DHT22;47127;47.516;8.596;2024-03-23T10:48:35;10.10;95.80
61253;DHT22;47127;47.516;8.596;2024-03-23T10:51:01;10.00;95.80
61253;DHT22;47127;47.516;8.596;2024-03-23T10:53:28;9.90;96.20
61253;DHT22;47127;47.516;8.596;2024-03-23T10:55:55;9.90;96.50
61253;DHT22;47127;47.516;8.596;2024-03-23T10:58:28;9.90;95.70
61253;DHT22;47127;47.516;8.596;2024-03-23T11:00:56;10.10;95.40
61253;DHT22;47127;47.516;8.596;2024-03-23T11:03:36;10.20;95.30
61253;DHT22;47127;47.516;8.596;2024-03-23T11:06:03;10.20;95.20
61253;DHT22;47127;47.516;8.596;2024-03-23T11:08:39;10.30;94.80
61253;DHT22;47127;47.516;8.596;2024-03-23T11:11:18;10.40;93.80
61253;DHT22;47127;47.516;8.596;2024-03-23T11:13:47;10.40;93.40
61253;DHT22;47127;47.516;8.596;2024-03-23T11:16:13;10.30;93.80
61253;DHT22;47127;47.516;8.596;2024-03-23T11:18:39;10.70;93.40
61253;DHT22;47127;47.516;8.596;2024-03-23T11:21:07;10.80;93.00
61253;DHT22;47127;47.516;8.596;2024-03-23T11:23:32;11.10;92.90
61253;DHT22;47127;47.516;8.596;2024-03-23T11:25:58;11.40;91.90
61253;DHT22;47127;47.516;8.596;2024-03-23T11:28:24;11.30;91.80
61253;DHT22;47127;47.516;8.596;2024-03-23T11:30:49;11.30;91.90
61253;DHT22;47127;47.516;8.596;2024-03-23T11:33:15;11.30;92.20
61253;DHT22;47127;47.516;8.596;2024-03-23T11:35:41;11.60;91.40
61253;DHT22;47127;47.516;8.596;2024-03-23T11:38:09;11.50;91.20
61253;DHT22;47127;47.516;8.596;2024-03-23T11:40:36;11.50;90.50
61253;DHT22;47127;47.516;8.596;2024-03-23T11:43:04;11.60;91.30
61253;DHT22;47127;47.516;8.596;2024-03-23T11:45:44;12.00;91.70
61253;DHT22;47127;47.516;8.596;2024-03-23T11:48:11;12.00;90.20
61253;DHT22;47127;47.516;8.596;2024-03-23T11:50:48;11.70;88.60
61253;DHT22;47127;47.516;8.596;2024-03-23T11:53:17;11.60;90.50
61253;DHT22;47127;47.516;8.596;2024-03-23T11:55:50;12.00;90.30
61253;DHT22;47127;47.516;8.596;2024-03-23T11:58:21;11.80;89.20
61253;DHT22;47127;47.516;8.596;2024-03-23T12:01:00;11.80;89.10
61253;DHT22;47127;47.516;8.596;2024-03-23T12:03:31;12.20;90.30
61253;DHT22;47127;47.516;8.596;2024-03-23T12:06:02;12.40;87.90
61253;DHT22;47127;47.516;8.596;2024-03-23T12:11:11;12.70;89.80
61253;DHT22;47127;47.516;8.596;2024-03-23T12:13:38;11.20;93.60
61253;DHT22;47127;47.516;8.596;2024-03-23T12:16:10;10.50;95.80
61253;DHT22;47127;47.516;8.596;2024-03-23T12:18:41;10.40;97.30
61253;DHT22;47127;47.516;8.596;2024-03-23T12:21:07;10.40;98.20
61253;DHT22;47127;47.516;8.596;2024-03-23T12:23:33;10.00;98.60
61253;DHT22;47127;47.516;8.596;2024-03-23T12:25:59;9.80;99.20
61253;DHT22;47127;47.516;8.596;2024-03-23T12:28:25;9.90;99.20
61253;DHT22;47127;47.516;8.596;2024-03-23T12:30:53;10.00;99.50
61253;DHT22;47127;47.516;8.596;2024-03-23T12:33:20;10.40;98.80
61253;DHT22;47127;47.516;8.596;2024-03-23T12:35:47;10.40;98.20
61253;DHT22;47127;47.516;8.596;2024-03-23T12:38:13;10.20;97.60
61253;DHT22;47127;47.516;8.596;2024-03-23T12:40:39;9.70;97.70
61253;DHT22;47127;47.516;8.596;2024-03-23T12:43:04;9.90;97.10
61253;DHT22;47127;47.516;8.596;2024-03-23T12:45:30;10.00;97.10
61253;DHT22;47127;47.516;8.596;2024-03-23T12:47:56;10.00;97.30
61253;DHT22;47127;47.516;8.596;2024-03-23T12:50:21;10.30;96.00
61253;DHT22;47127;47.516;8.596;2024-03-23T12:52:47;10.20;95.70
61253;DHT22;47127;47.516;8.596;2024-03-23T12:55:13;10.60;95.30
61253;DHT22;47127;47.516;8.596;2024-03-23T12:57:40;10.90;95.30
61253;DHT22;47127;47.516;8.596;2024-03-23T13:00:07;10.90;94.00
61253;DHT22;47127;47.516;8.596;2024-03-23T13:02:35;10.30;95.20
61253;DHT22;47127;47.516;8.596;2024-03-23T13:05:00;10.40;95.00
61253;DHT22;47127;47.516;8.596;2024-03-23T13:07:27;10.20;95.70
61253;DHT22;47127;47.516;8.596;2024-03-23T13:09:54;10.20;95.40
61253;DHT22;47127;47.516;8.596;2024-03-23T13:12:22;10.20;95.60
61253;DHT22;47127;47.516;8.596;2024-03-23T13:14:49;10.50;95.70
61253;DHT22;47127;47.516;8.596;2024-03-23T13:17:14;10.80;95.10
61253;DHT22;47127;47.516;8.596;2024-03-23T13:19:40;10.90;94.80
61253;DHT22;47127;47.516;8.596;2024-03-23T13:22:06;10.90;94.90
61253;DHT22;47127;47.516;8.596;2024-03-23T13:24:32;11.20;94.80
61253;DHT22;47127;47.516;8.596;2024-03-23T13:27:00;11.10;94.90
61253;DHT22;47127;47.516;8.596;2024-03-23T13:29:26;11.60;94.20
61253;DHT22;47127;47.516;8.596;2024-03-23T13:31:52;11.80;93.70
61253;DHT22;47127;47.516;8.596;2024-03-23T13:34:18;11.60;93.70
61253;DHT22;47127;47.516;8.596;2024-03-23T13:36:44;11.70;93.90
61253;DHT22;47127;47.516;8.596;2024-03-23T13:39:11;11.30;94.20
61253;DHT22;47127;47.516;8.596;2024-03-23T13:41:40;11.10;94.60
61253;DHT22;47127;47.516;8.596;2024-03-23T13:44:07;10.80;95.30
61253;DHT22;47127;47.516;8.596;2024-03-23T13:46:33;10.40;96.20
61253;DHT22;47127;47.516;8.596;2024-03-23T13:48:59;9.90;97.10
61253;DHT22;47127;47.516;8.596;2024-03-23T13:51:25;8.90;97.30
61253;DHT22;47127;47.516;8.596;2024-03-23T13:53:54;8.90;97.60
61253;DHT22;47127;47.516;8.596;2024-03-23T13:56:22;9.00;97.40
61253;DHT22;47127;47.516;8.596;2024-03-23T13:58:48;9.30;97.90
61253;DHT22;47127;47.516;8.596;2024-03-23T14:01:17;9.90;98.30
61253;DHT22;47127;47.516;8.596;2024-03-23T14:03:43;10.50;97.60
61253;DHT22;47127;47.516;8.596;2024-03-23T14:06:09;11.00;97.80
61253;DHT22;47127;47.516;8.596;2024-03-23T14:08:37;11.60;97.00
61253;DHT22;47127;47.516;8.596;2024-03-23T14:11:06;12.00;95.70
61253;DHT22;47127;47.516;8.596;2024-03-23T14:13:33;11.80;94.80
61253;DHT22;47127;47.516;8.596;2024-03-23T14:15:59;12.40;95.90
61253;DHT22;47127;47.516;8.596;2024-03-23T14:18:25;11.80;94.10
61253;DHT22;47127;47.516;8.596;2024-03-23T14:20:59;11.60;94.90
61253;DHT22;47127;47.516;8.596;2024-03-23T14:23:28;11.10;93.50
61253;DHT22;47127;47.516;8.596;2024-03-23T14:26:00;10.90;93.60
61253;DHT22;47127;47.516;8.596;2024-03-23T14:28:26;11.10;93.90
61253;DHT22;47127;47.516;8.596;2024-03-23T14:30:52;11.40;93.10
61253;DHT22;47127;47.516;8.596;2024-03-23T14:33:18;11.90;94.00
61253;DHT22;47127;47.516;8.596;2024-03-23T14:35:52;12.40;92.30
61253;DHT22;47127;47.516;8.596;2024-03-23T14:38:18;12.30;91.90
61253;DHT22;47127;47.516;8.596;2024-03-23T14:40:44;12.50;91.50
61253;DHT22;47127;47.516;8.596;2024-03-23T14:43:11;12.70;93.10
61253;DHT22;47127;47.516;8.596;2024-03-23T14:45:36;12.50;90.30
61253;DHT22;47127;47.516;8.596;2024-03-23T14:48:02;12.70;88.60
61253;DHT22;47127;47.516;8.596;2024-03-23T14:50:27;12.80;83.80
61253;DHT22;47127;47.516;8.596;2024-03-23T14:52:53;12.70;78.40
61253;DHT22;47127;47.516;8.596;2024-03-23T14:55:19;12.30;75.60
61253;DHT22;47127;47.516;8.596;2024-03-23T14:57:45;12.10;78.80
61253;DHT22;47127;47.516;8.596;2024-03-23T15:00:11;12.10;78.90
61253;DHT22;47127;47.516;8.596;2024-03-23T15:02:38;12.00;78.00
61253;DHT22;47127;47.516;8.596;2024-03-23T15:05:04;12.20;81.90
61253;DHT22;47127;47.516;8.596;2024-03-23T15:07:35;12.70;78.30
61253;DHT22;47127;47.516;8.596;2024-03-23T15:10:01;12.50;77.40
61253;DHT22;47127;47.516;8.596;2024-03-23T15:12:26;12.40;77.60
61253;DHT22;47127;47.516;8.596;2024-03-23T15:14:52;12.60;77.60
61253;DHT22;47127;47.516;8.596;2024-03-23T15:17:18;11.10;74.40
61253;DHT22;47127;47.516;8.596;2024-03-23T15:19:44;12.40;75.30
61253;DHT22;47127;47.516;8.596;2024-03-23T15:22:09;12.20;76.10
61253;DHT22;47127;47.516;8.596;2024-03-23T15:24:37;12.50;74.50
61253;DHT22;47127;47.516;8.596;2024-03-23T15:27:05;12.70;73.30
61253;DHT22;47127;47.516;8.596;2024-03-23T15:29:32;12.70;73.90
61253;DHT22;47127;47.516;8.596;2024-03-23T15:31:58;12.20;72.90
61253;DHT22;47127;47.516;8.596;2024-03-23T15:34:24;12.20;74.80
61253;DHT22;47127;47.516;8.596;2024-03-23T15:36:50;12.40;72.50
61253;DHT22;47127;47.516;8.596;2024-03-23T15:39:17;12.20;73.20
61253;DHT22;47127;47.516;8.596;2024-03-23T15:41:46;11.90;74.80
61253;DHT22;47127;47.516;8.596;2024-03-23T15:44:11;11.50;73.80
61253;DHT22;47127;47.516;8.596;2024-03-23T15:46:37;11.90;74.60
61253;DHT22;47127;47.516;8.596;2024-03-23T15:49:03;11.80;73.50
61253;DHT22;47127;47.516;8.596;2024-03-23T15:51:31;11.70;73.20
61253;DHT22;47127;47.516;8.596;2024-03-23T15:53:59;11.50;74.50
61253;DHT22;47127;47.516;8.596;2024-03-23T15:56:25;11.30;74.80
61253;DHT22;47127;47.516;8.596;2024-03-23T15:58:50;11.30;75.20
61253;DHT22;47127;47.516;8.596;2024-03-23T16:01:16;11.20;76.30
61253;DHT22;47127;47.516;8.596;2024-03-23T16:03:42;11.20;73.80
61253;DHT22;47127;47.516;8.596;2024-03-23T16:06:07;11.00;74.20
61253;DHT22;47127;47.516;8.596;2024-03-23T16:08:33;11.10;77.00
61253;DHT22;47127;47.516;8.596;2024-03-23T16:11:06;11.00;75.30
61253;DHT22;47127;47.516;8.596;2024-03-23T16:13:33;11.10;74.40
61253;DHT22;47127;47.516;8.596;2024-03-23T16:16:00;11.10;74.40
61253;DHT22;47127;47.516;8.596;2024-03-23T16:18:29;11.00;74.20
61253;DHT22;47127;47.516;8.596;2024-03-23T16:21:02;10.80;75.20
61253;DHT22;47127;47.516;8.596;2024-03-23T16:23:28;10.70;75.70
61253;DHT22;47127;47.516;8.596;2024-03-23T16:25:56;10.40;76.40
61253;DHT22;47127;47.516;8.596;2024-03-23T16:28:29;10.50;77.10
61253;DHT22;47127;47.516;8.596;2024-03-23T16:31:03;10.60;79.10